Time;durP1;ratioP1;P1;durP2;ratioP2;P2;SDS_P1;SDS_P2;PMS_P1;PMS_P2;Temp;Humidity;BMP_temperature;BMP_pressure;BME280_temperature;BME280_humidity;BME280_pressure;Samples;Min_cycle;Max_cycle;Signal;HPM_P1;HPM_P2
2021/03/31 00:01:43;;;;;;;;;;;10.30;99.90;;;;;;5092663;27;20205;-71
2021/03/31 00:04:09;;;;;;;16.23;6.80;;;10.20;99.90;;;;;;5093041;27;20407;-71
2021/03/31 00:06:36;;;;;;;;;;;10.20;99.90;;;;;;5092236;27;20043;-72
2021/03/31 00:09:02;;;;;;;20.35;7.97;;;10.20;99.90;;;;;;5089360;27;20603;-72
2021/03/31 00:11:29;;;;;;;15.88;7.47;;;10.10;99.90;;;;;;5091712;27;20073;-72
2021/03/31 00:13:55;;;;;;;;;;;10.00;99.90;;;;;;5090572;27;20051;-72
2021/03/31 00:16:22;;;;;;;17.10;7.10;;;10.00;99.90;;;;;;5085142;27;19927;-72
2021/03/31 00:18:50;;;;;;;;;;;10.10;99.90;;;;;;5087208;27;20086;-71
2021/03/31 00:21:16;;;;;;;18.58;7.45;;;9.90;99.90;;;;;;5088008;27;20325;-72
2021/03/31 00:23:43;;;;;;;18.25;7.10;;;10.10;99.90;;;;;;5087336;27;20101;-72
2021/03/31 00:26:09;;;;;;;18.08;7.38;;;10.10;99.90;;;;;;5087577;27;20047;-72
2021/03/31 00:28:36;;;;;;;13.52;7.10;;;10.00;99.90;;;;;;5088371;27;20069;-72
2021/03/31 00:31:03;;;;;;;14.98;6.30;;;10.10;99.90;;;;;;5086983;27;20132;-71
2021/03/31 00:33:30;;;;;;;13.68;6.32;;;10.00;99.90;;;;;;5085798;27;20055;-71
2021/03/31 00:35:58;;;;;;;15.98;7.25;;;10.00;99.90;;;;;;5088333;27;20074;-71
2021/03/31 00:38:24;;;;;;;16.38;6.65;;;10.00;99.90;;;;;;5087319;27;20047;-71
2021/03/31 00:40:52;;;;;;;15.20;6.20;;;9.90;99.90;;;;;;5085989;27;20058;-71
2021/03/31 00:43:19;;;;;;;14.68;7.57;;;9.80;99.90;;;;;;5089041;27;20071;-71
2021/03/31 00:45:46;;;;;;;14.38;6.43;;;9.80;99.90;;;;;;5088678;27;20062;-71
2021/03/31 00:48:14;;;;;;;13.80;6.57;;;9.90;99.90;;;;;;5089202;27;20175;-71
2021/03/31 00:50:46;;;;;;;15.05;6.63;;;9.90;99.90;;;;;;5089727;27;20575;-72
2021/03/31 00:53:18;;;;;;;12.38;6.32;;;9.90;99.90;;;;;;5087323;27;20046;-72
2021/03/31 00:55:45;;;;;;;16.65;6.85;;;9.90;99.90;;;;;;5092593;27;20055;-71
2021/03/31 00:58:12;;;;;;;12.15;6.28;;;9.80;99.90;;;;;;5094901;27;20051;-72
2021/03/31 01:00:39;;;;;;;11.98;6.35;;;9.90;99.90;;;;;;5093423;27;20499;-71
2021/03/31 01:03:06;;;;;;;14.57;6.45;;;9.80;99.90;;;;;;5091817;27;20130;-72
2021/03/31 01:05:33;;;;;;;11.50;5.78;;;9.80;99.90;;;;;;5092802;27;20056;-72
2021/03/31 01:08:00;;;;;;;11.85;6.15;;;9.70;99.90;;;;;;5092821;27;20122;-71
2021/03/31 01:10:30;;;;;;;17.27;6.70;;;9.70;99.90;;;;;;5097181;27;20043;-72
2021/03/31 01:13:45;;;;;;;17.63;7.03;;;9.60;99.90;;;;;;5086213;27;20571;-72
2021/03/31 01:16:32;;;;;;;12.52;6.38;;;9.50;99.90;;;;;;5000312;28;20115;-72
2021/03/31 01:19:02;;;;;;;14.13;6.80;;;9.50;99.90;;;;;;5091606;27;20097;-71
2021/03/31 01:22:13;;;;;;;14.52;6.53;;;9.40;99.90;;;;;;5086705;27;20051;-72
2021/03/31 01:25:13;;;;;;;16.27;7.22;;;9.40;99.90;;;;;;5078704;27;20051;-72
2021/03/31 01:28:02;;;;;;;14.60;7.40;;;9.40;99.90;;;;;;5096939;27;20054;-72
2021/03/31 01:30:36;;;;;;;11.82;5.95;;;9.30;99.90;;;;;;5094713;27;20529;-71
2021/03/31 01:33:21;;;;;;;16.23;7.25;;;9.40;99.90;;;;;;5093874;27;20058;-71
2021/03/31 01:35:51;;;;;;;13.00;6.40;;;9.40;99.90;;;;;;5093119;27;20512;-71
2021/03/31 01:38:19;;;;;;;16.08;7.30;;;9.40;99.90;;;;;;5093502;27;20044;-72
2021/03/31 01:40:50;;;;;;;12.18;6.25;;;9.40;99.90;;;;;;5094979;27;20546;-72
2021/03/31 01:43:20;;;;;;;15.60;7.20;;;9.40;99.90;;;;;;5091175;27;20100;-72
2021/03/31 01:45:50;;;;;;;15.50;6.60;;;9.30;99.90;;;;;;5093162;27;20059;-72
2021/03/31 01:48:20;;;;;;;18.65;7.22;;;9.20;99.90;;;;;;5096280;27;20076;-72
2021/03/31 01:50:51;;;;;;;14.07;7.07;;;9.20;99.90;;;;;;5093516;27;20062;-71
2021/03/31 01:53:18;;;;;;;12.45;6.82;;;9.10;99.90;;;;;;5094870;27;20051;-72
2021/03/31 01:55:50;;;;;;;14.07;6.18;;;9.10;99.90;;;;;;5095116;27;20066;-72
2021/03/31 01:58:18;;;;;;;16.35;6.82;;;9.10;99.90;;;;;;5094649;27;20511;-71
2021/03/31 02:00:46;;;;;;;14.55;6.60;;;9.00;99.90;;;;;;5097161;27;20496;-72
2021/03/31 02:03:15;;;;;;;17.00;6.32;;;9.10;99.90;;;;;;5085491;27;20111;-71
2021/03/31 02:05:42;;;;;;;13.95;6.85;;;9.20;99.90;;;;;;5088826;27;20511;-72
2021/03/31 02:08:10;;;;;;;12.30;6.13;;;9.20;99.90;;;;;;5085727;27;20495;-71
2021/03/31 02:10:37;;;;;;;13.23;6.65;;;9.10;99.90;;;;;;5087168;27;20051;-71
2021/03/31 02:13:05;;;;;;;13.27;6.05;;;9.00;99.90;;;;;;5087323;27;20057;-72
2021/03/31 02:15:34;;;;;;;17.15;6.95;;;9.00;99.90;;;;;;5086136;27;20047;-71
2021/03/31 02:18:05;;;;;;;13.93;6.72;;;8.90;99.90;;;;;;5088743;27;20094;-71
2021/03/31 02:20:32;;;;;;;14.00;6.88;;;8.80;99.90;;;;;;5094549;27;20124;-71
2021/03/31 02:23:01;;;;;;;15.98;6.63;;;8.80;99.90;;;;;;5093330;27;20130;-71
2021/03/31 02:25:29;;;;;;;12.95;5.65;;;8.80;99.90;;;;;;5096252;27;20043;-71
2021/03/31 02:27:55;;;;;;;18.45;7.05;;;8.80;99.90;;;;;;5085979;27;20063;-72
2021/03/31 02:30:25;;;;;;;13.27;7.15;;;8.70;99.90;;;;;;5094463;27;20461;-72
2021/03/31 02:32:55;;;;;;;14.32;7.63;;;8.80;99.90;;;;;;5094286;27;20091;-72
2021/03/31 02:35:23;;;;;;;14.32;6.55;;;8.90;99.90;;;;;;5087363;27;20071;-72
2021/03/31 02:37:53;;;;;;;13.32;6.72;;;8.80;99.90;;;;;;5088269;27;20054;-72
2021/03/31 02:40:21;;;;;;;15.65;7.32;;;8.80;99.90;;;;;;5087516;27;20071;-71
2021/03/31 02:42:50;;;;;;;14.75;6.70;;;8.60;99.90;;;;;;5087301;27;20046;-71
2021/03/31 02:45:18;;;;;;;12.98;6.43;;;8.60;99.90;;;;;;5086683;27;20504;-71
2021/03/31 02:47:46;;;;;;;14.77;7.55;;;8.60;99.90;;;;;;5087023;28;20043;-71
2021/03/31 02:50:15;;;;;;;14.18;6.95;;;8.40;99.90;;;;;;5084232;28;20079;-71
2021/03/31 02:52:44;;;;;;;13.57;6.72;;;8.40;99.90;;;;;;5090093;28;20083;-71
2021/03/31 02:55:12;;;;;;;14.95;6.90;;;8.40;99.90;;;;;;5094989;28;20787;-72
2021/03/31 02:57:39;;;;;;;13.40;6.03;;;8.30;99.90;;;;;;5095538;28;20397;-71
2021/03/31 03:00:09;;;;;;;14.10;7.15;;;8.20;99.90;;;;;;5092776;28;20168;-71
2021/03/31 03:02:37;;;;;;;13.35;6.38;;;8.10;99.90;;;;;;5090973;28;20058;-72
2021/03/31 03:05:06;;;;;;;14.15;6.55;;;7.90;99.90;;;;;;5098772;28;20090;-71
2021/03/31 03:07:33;;;;;;;14.15;7.32;;;7.80;99.90;;;;;;5098155;28;20048;-71
2021/03/31 03:10:01;;;;;;;15.20;6.47;;;7.80;99.90;;;;;;5097870;28;20050;-71
2021/03/31 03:12:28;;;;;;;13.73;6.63;;;7.80;99.90;;;;;;5095878;28;20519;-71
2021/03/31 03:14:57;;;;;;;11.52;7.10;;;7.80;99.90;;;;;;5095184;28;20511;-71
2021/03/31 03:17:24;;;;;;;12.30;6.33;;;7.70;99.90;;;;;;5092493;28;20075;-71
2021/03/31 03:19:51;;;;;;;18.48;7.03;;;7.70;99.90;;;;;;5086553;28;20048;-72
2021/03/31 03:22:18;;;;;;;13.00;6.70;;;7.60;99.90;;;;;;5090286;28;20051;-71
2021/03/31 03:24:47;;;;;;;15.43;7.05;;;7.50;99.90;;;;;;5093747;28;20808;-71
2021/03/31 03:27:15;;;;;;;16.80;7.27;;;7.70;99.90;;;;;;5091803;28;20055;-71
2021/03/31 03:29:50;;;;;;;14.90;7.27;;;7.50;99.90;;;;;;5092986;28;20135;-71
2021/03/31 03:32:18;;;;;;;17.17;7.33;;;7.50;99.90;;;;;;5094639;27;20458;-71
2021/03/31 03:34:46;;;;;;;14.33;6.60;;;7.40;99.90;;;;;;5091606;27;20081;-71
2021/03/31 03:37:13;;;;;;;15.97;6.43;;;7.40;99.90;;;;;;5088714;27;20055;-72
2021/03/31 03:39:40;;;;;;;15.40;6.87;;;7.40;99.90;;;;;;5095980;27;20590;-71
2021/03/31 03:42:08;;;;;;;12.50;6.97;;;7.40;99.90;;;;;;5093313;27;20477;-71
2021/03/31 03:44:35;;;;;;;13.20;6.83;;;7.20;99.90;;;;;;5092542;27;20571;-71
2021/03/31 03:47:04;;;;;;;15.37;7.00;;;7.20;99.90;;;;;;5097167;27;20058;-72
2021/03/31 03:49:35;;;;;;;14.07;6.20;;;7.20;99.90;;;;;;5099279;27;20630;-71
2021/03/31 03:52:04;;;;;;;15.77;6.90;;;7.10;99.90;;;;;;5095987;27;20043;-71
2021/03/31 03:54:38;;;;;;;14.30;6.80;;;7.10;99.90;;;;;;5095913;27;20071;-71
2021/03/31 03:57:06;;;;;;;15.35;8.20;;;7.10;99.90;;;;;;5094748;27;20108;-71
2021/03/31 03:59:35;;;;;;;12.57;6.80;;;7.10;99.90;;;;;;5091880;27;20875;-73
2021/03/31 04:02:02;;;;;;;14.80;7.20;;;7.20;99.90;;;;;;5088352;27;20492;-72
2021/03/31 04:04:28;;;;;;;16.70;7.43;;;7.20;99.90;;;;;;5088520;27;20078;-72
2021/03/31 04:06:58;;;;;;;;;;;7.20;99.90;;;;;;5092405;27;20077;-71
2021/03/31 04:09:28;;;;;;;12.67;6.47;;;7.10;99.90;;;;;;5086573;27;20370;-72
2021/03/31 04:11:56;;;;;;;12.53;6.83;;;7.10;99.90;;;;;;5090673;27;20043;-71
2021/03/31 04:14:23;;;;;;;14.37;7.13;;;7.00;99.90;;;;;;5090764;27;20059;-71
2021/03/31 04:16:50;;;;;;;16.27;6.97;;;7.00;99.90;;;;;;5094977;27;20507;-71
2021/03/31 04:19:19;;;;;;;22.83;7.60;;;7.00;99.90;;;;;;5085431;27;20051;-71
2021/03/31 04:21:45;;;;;;;14.93;6.17;;;6.90;99.90;;;;;;5087068;27;20047;-72
2021/03/31 04:24:13;;;;;;;13.83;7.00;;;7.00;99.90;;;;;;5097335;27;20052;-71
2021/03/31 04:26:41;;;;;;;13.90;6.50;;;7.00;99.90;;;;;;5097056;27;20554;-72
2021/03/31 04:29:13;;;;;;;16.53;6.50;;;6.90;99.90;;;;;;5088352;27;20066;-71
2021/03/31 04:31:40;;;;;;;15.07;6.47;;;7.00;99.90;;;;;;5095043;27;20051;-72
2021/03/31 04:34:08;;;;;;;12.83;6.50;;;7.00;99.90;;;;;;5092069;27;20085;-72
2021/03/31 04:36:35;;;;;;;19.83;7.17;;;7.00;99.90;;;;;;5089713;27;20051;-71
2021/03/31 04:39:04;;;;;;;15.60;6.97;;;6.90;99.90;;;;;;5094667;27;20055;-72
2021/03/31 04:41:30;;;;;;;16.87;7.13;;;6.80;99.90;;;;;;5096832;27;20051;-72
2021/03/31 04:43:58;;;;;;;16.33;7.37;;;6.70;99.90;;;;;;5096040;27;20067;-71
2021/03/31 04:46:24;;;;;;;13.63;6.63;;;6.70;99.90;;;;;;5095381;27;20055;-71
2021/03/31 04:48:51;;;;;;;16.40;6.70;;;6.70;99.90;;;;;;5095081;27;20051;-72
2021/03/31 04:51:17;;;;;;;13.60;7.10;;;6.80;99.90;;;;;;5091046;27;20059;-71
2021/03/31 04:53:44;;;;;;;15.03;7.30;;;6.80;99.90;;;;;;5089542;27;20055;-73
2021/03/31 04:56:12;;;;;;;14.87;6.80;;;6.80;99.90;;;;;;5090508;27;20089;-72
2021/03/31 04:58:38;;;;;;;16.80;8.20;;;6.90;99.90;;;;;;5096514;27;20087;-72
2021/03/31 05:01:05;;;;;;;16.97;7.77;;;6.80;99.90;;;;;;5089337;27;20047;-71
2021/03/31 05:03:32;;;;;;;11.63;6.77;;;6.70;99.90;;;;;;5087785;27;20136;-72
2021/03/31 05:05:58;;;;;;;14.97;7.53;;;6.60;99.90;;;;;;5090520;27;20526;-71
2021/03/31 05:08:25;;;;;;;15.97;8.10;;;6.60;99.90;;;;;;5093876;27;20052;-71
2021/03/31 05:10:51;;;;;;;17.27;7.97;;;6.70;99.90;;;;;;5089989;27;20086;-71
2021/03/31 05:13:18;;;;;;;21.67;8.20;;;6.60;99.90;;;;;;5092349;27;20484;-71
2021/03/31 05:15:44;;;;;;;;;;;6.60;99.90;;;;;;5095821;27;20538;-72
2021/03/31 05:18:12;;;;;;;19.27;7.53;;;6.80;99.90;;;;;;5094751;27;19927;-72
2021/03/31 05:20:38;;;;;;;14.03;7.63;;;6.90;99.90;;;;;;5085751;27;20058;-72
2021/03/31 05:23:05;;;;;;;12.37;7.20;;;6.80;99.90;;;;;;5086016;27;20055;-72
2021/03/31 05:25:31;;;;;;;18.97;7.73;;;6.70;99.90;;;;;;5093303;27;20217;-72
2021/03/31 05:27:58;;;;;;;15.07;7.70;;;6.80;99.90;;;;;;5099153;27;20058;-72
2021/03/31 05:30:25;;;;;;;17.93;7.77;;;6.90;99.90;;;;;;5093506;27;20523;-72
2021/03/31 05:32:52;;;;;;;15.40;7.43;;;6.90;99.90;;;;;;5093729;27;20052;-72
2021/03/31 05:35:19;;;;;;;20.30;7.60;;;6.90;99.90;;;;;;5090339;27;20050;-72
2021/03/31 05:37:47;;;;;;;14.87;7.10;;;7.00;99.90;;;;;;5091361;27;20083;-72
2021/03/31 05:40:14;;;;;;;14.87;7.70;;;7.10;99.90;;;;;;5091701;27;20086;-72
2021/03/31 05:42:41;;;;;;;14.80;6.97;;;7.10;99.90;;;;;;5094720;27;20142;-73
2021/03/31 05:45:11;;;;;;;15.77;7.60;;;7.10;99.90;;;;;;5098276;27;20050;-73
2021/03/31 05:47:41;;;;;;;14.77;7.90;;;7.20;99.90;;;;;;5098870;27;20124;-72
2021/03/31 05:50:10;;;;;;;15.87;7.20;;;7.30;99.90;;;;;;5097099;27;20141;-72
2021/03/31 05:52:38;;;;;;;19.90;7.70;;;7.50;99.90;;;;;;5097742;27;20086;-72
2021/03/31 05:55:06;;;;;;;15.17;8.00;;;7.60;99.90;;;;;;5095586;27;20055;-72
2021/03/31 05:57:34;;;;;;;19.77;7.93;;;7.70;99.90;;;;;;5099515;27;20043;-71
2021/03/31 06:00:01;;;;;;;17.70;8.93;;;7.70;99.90;;;;;;5095530;27;20087;-66
2021/03/31 06:02:29;;;;;;;16.43;8.27;;;7.80;99.90;;;;;;5096165;27;20437;-68
2021/03/31 06:04:55;;;;;;;18.73;8.17;;;8.00;99.90;;;;;;5100848;27;20542;-68
2021/03/31 06:07:21;;;;;;;;;;;8.10;99.90;;;;;;5100495;27;20075;-68
2021/03/31 06:10:13;;;;;;;19.10;7.93;;;8.10;99.90;;;;;;5098401;27;19989;-68
2021/03/31 06:12:42;;;;;;;18.40;7.90;;;8.00;99.90;;;;;;5092786;27;20066;-68
2021/03/31 06:15:13;;;;;;;18.37;8.27;;;8.10;99.90;;;;;;5105888;27;20051;-68
2021/03/31 06:17:53;;;;;;;17.30;8.45;;;8.30;99.90;;;;;;5111416;27;20055;-68
2021/03/31 06:20:45;;;;;;;19.17;8.38;;;8.40;99.90;;;;;;5099661;27;20048;-68
2021/03/31 06:23:20;;;;;;;17.58;8.43;;;8.40;99.90;;;;;;5095187;27;20464;-68
2021/03/31 06:25:50;;;;;;;19.83;8.70;;;8.50;99.90;;;;;;5107834;27;20129;-68
2021/03/31 06:28:34;;;;;;;18.15;8.40;;;8.70;99.90;;;;;;5101729;27;20043;-68
2021/03/31 06:31:08;;;;;;;22.67;9.45;;;8.90;99.90;;;;;;5095140;27;20063;-68
2021/03/31 06:33:36;;;;;;;21.17;8.32;;;9.10;99.90;;;;;;5095820;27;20457;-75
2021/03/31 06:36:03;;;;;;;22.60;8.40;;;9.30;99.90;;;;;;5090326;27;20101;-71
2021/03/31 06:38:30;;;;;;;16.45;7.82;;;9.40;99.90;;;;;;5077386;27;20186;-74
2021/03/31 06:41:10;;;;;;;21.08;8.32;;;9.50;99.90;;;;;;5088515;28;20074;-74
2021/03/31 06:43:38;;;;;;;23.30;8.55;;;9.60;99.90;;;;;;5092565;27;20048;-74
2021/03/31 06:46:15;;;;;;;19.73;8.32;;;9.60;99.90;;;;;;5097694;28;20067;-74
2021/03/31 06:48:47;;;;;;;18.00;8.88;;;9.70;99.90;;;;;;5095367;28;20511;-74
2021/03/31 06:51:27;;;;;;;16.85;7.63;;;9.70;99.90;;;;;;5096055;28;20047;-75
2021/03/31 06:53:54;;;;;;;19.73;8.57;;;9.90;99.90;;;;;;5094830;28;20097;-73
2021/03/31 06:56:28;;;;;;;;;;;9.90;99.90;;;;;;5096930;28;20043;-74
2021/03/31 06:59:00;;;;;;;18.42;8.75;;;10.00;99.90;;;;;;5096711;28;20002;-74
2021/03/31 07:01:31;;;;;;;21.27;8.55;;;10.10;99.90;;;;;;5095021;28;20461;-74
2021/03/31 07:03:59;;;;;;;18.15;7.80;;;10.20;99.90;;;;;;5096451;28;20082;-74
2021/03/31 07:06:26;;;;;;;18.70;8.45;;;10.10;99.90;;;;;;5095205;28;20055;-73
2021/03/31 07:08:52;;;;;;;17.27;7.18;;;10.30;99.90;;;;;;5099239;27;20050;-74
2021/03/31 07:11:40;;;;;;;15.52;7.60;;;10.40;99.90;;;;;;5100445;27;20392;-74
2021/03/31 07:14:09;;;;;;;19.98;8.15;;;10.50;99.90;;;;;;5102042;27;20445;-74
2021/03/31 07:16:37;;;;;;;21.33;8.32;;;10.60;99.90;;;;;;5101660;27;20044;-74
2021/03/31 07:19:04;;;;;;;17.02;7.50;;;10.70;99.90;;;;;;5098543;27;20822;-74
2021/03/31 07:21:31;;;;;;;19.88;7.90;;;10.70;99.90;;;;;;5097603;27;20071;-74
2021/03/31 07:23:58;;;;;;;18.45;8.40;;;10.80;99.90;;;;;;5096899;27;20094;-74
2021/03/31 07:26:25;;;;;;;18.67;7.68;;;11.00;99.90;;;;;;5101959;27;20043;-74
2021/03/31 07:28:53;;;;;;;16.08;7.57;;;11.00;99.90;;;;;;5099733;27;20142;-75
2021/03/31 07:31:24;;;;;;;20.85;7.47;;;11.10;99.90;;;;;;5101949;27;20679;-74
2021/03/31 07:34:04;;;;;;;14.98;7.82;;;11.10;99.90;;;;;;5102108;27;20538;-73
2021/03/31 07:36:31;;;;;;;17.17;7.72;;;11.20;99.90;;;;;;5099829;27;20457;-73
2021/03/31 07:39:01;;;;;;;23.75;8.00;;;11.30;99.90;;;;;;5100774;27;20088;-74
2021/03/31 07:41:28;;;;;;;17.90;7.65;;;11.40;99.90;;;;;;5099627;27;20047;-74
2021/03/31 07:43:58;;;;;;;17.33;7.32;;;11.50;99.90;;;;;;5096926;27;20051;-74
2021/03/31 07:46:28;;;;;;;14.77;7.60;;;11.50;99.90;;;;;;5092626;27;20043;-73
2021/03/31 07:48:56;;;;;;;18.58;7.60;;;11.60;99.90;;;;;;5093833;27;20421;-75
2021/03/31 07:51:25;;;;;;;26.10;8.50;;;11.80;99.90;;;;;;5093099;27;20050;-74
2021/03/31 07:53:54;;;;;;;27.38;8.93;;;12.00;99.90;;;;;;5091723;27;20101;-73
2021/03/31 07:56:22;;;;;;;21.55;7.22;;;12.20;99.90;;;;;;5092580;27;20039;-73
2021/03/31 07:59:18;;;;;;;18.90;8.65;;;12.30;99.90;;;;;;5095944;27;20138;-73
2021/03/31 08:01:47;;;;;;;23.27;8.90;;;12.50;99.90;;;;;;5055728;27;20066;-73
2021/03/31 08:04:15;;;;;;;18.00;8.93;;;12.70;99.90;;;;;;5098258;27;20056;-75
2021/03/31 08:06:43;;;;;;;19.48;8.77;;;12.90;99.90;;;;;;5100324;27;20062;-75
2021/03/31 08:09:10;;;;;;;13.82;8.55;;;13.00;99.90;;;;;;5096959;27;20079;-73
2021/03/31 08:11:52;;;;;;;18.65;8.95;;;13.30;99.90;;;;;;5101618;27;20051;-73
2021/03/31 08:14:35;;;;;;;19.40;8.65;;;13.50;99.90;;;;;;5097632;27;20046;-73
2021/03/31 08:17:05;;;;;;;18.25;9.43;;;13.50;99.90;;;;;;5097407;27;20103;-74
2021/03/31 08:19:33;;;;;;;20.90;9.45;;;13.70;99.90;;;;;;5098386;27;20095;-75
2021/03/31 08:22:00;;;;;;;27.17;11.05;;;13.80;99.90;;;;;;5097281;27;20047;-75
2021/03/31 08:24:41;;;;;;;26.13;11.77;;;14.10;99.90;;;;;;5101235;27;20050;-75
2021/03/31 08:27:07;;;;;;;18.23;8.95;;;14.60;99.90;;;;;;5089541;27;20063;-73
2021/03/31 08:29:52;;;;;;;17.52;8.82;;;15.40;99.90;;;;;;5094199;27;20067;-74
2021/03/31 08:32:20;;;;;;;20.77;9.30;;;16.60;99.90;;;;;;5098695;27;20157;-74
2021/03/31 08:34:47;;;;;;;18.40;9.63;;;17.30;99.90;;;;;;5098207;27;20063;-76
2021/03/31 08:37:23;;;;;;;23.00;10.52;;;18.20;99.90;;;;;;5103851;27;20076;-75
2021/03/31 08:39:50;;;;;;;33.88;12.90;;;19.20;99.90;;;;;;5097903;27;20534;-75
2021/03/31 08:42:17;;;;;;;34.47;13.80;;;19.80;98.50;;;;;;5107162;27;20075;-76
2021/03/31 08:44:48;;;;;;;26.05;11.57;;;20.80;95.60;;;;;;5101482;27;20058;-76
2021/03/31 08:47:17;;;;;;;18.80;10.70;;;21.80;91.40;;;;;;5093969;27;20531;-74
2021/03/31 08:49:45;;;;;;;23.42;12.68;;;22.80;84.20;;;;;;5091974;27;20087;-76
2021/03/31 08:52:16;;;;;;;27.33;11.38;;;23.40;78.70;;;;;;5081806;27;20796;-74
2021/03/31 08:54:45;;;;;;;18.10;10.52;;;23.90;74.60;;;;;;5075925;27;20127;-75
2021/03/31 08:57:14;;;;;;;20.75;11.10;;;24.60;68.90;;;;;;5081159;27;20047;-76
2021/03/31 08:59:41;;;;;;;19.77;10.35;;;25.30;65.30;;;;;;5082625;27;20101;-75
2021/03/31 09:02:09;;;;;;;18.63;9.90;;;26.00;60.90;;;;;;5092796;27;20052;-74
2021/03/31 09:04:37;;;;;;;17.17;10.18;;;26.30;58.80;;;;;;5091328;27;20047;-75
2021/03/31 09:07:06;;;;;;;14.85;8.95;;;26.80;56.80;;;;;;5092412;27;20058;-75
2021/03/31 09:09:33;;;;;;;20.40;9.40;;;27.00;54.70;;;;;;5092081;27;20136;-74
2021/03/31 09:12:01;;;;;;;18.83;9.55;;;26.70;53.80;;;;;;5093036;27;21118;-75
2021/03/31 09:14:28;;;;;;;15.05;9.27;;;26.90;53.30;;;;;;5089138;27;20083;-75
2021/03/31 09:16:57;;;;;;;14.38;8.00;;;27.90;52.40;;;;;;5091321;27;20051;-74
2021/03/31 09:19:25;;;;;;;17.27;8.65;;;28.20;51.50;;;;;;5091690;27;20144;-76
2021/03/31 09:21:53;;;;;;;14.13;8.43;;;28.40;50.50;;;;;;5090755;27;20492;-74
2021/03/31 09:24:23;;;;;;;16.17;8.30;;;28.80;49.10;;;;;;5088705;27;20047;-76
2021/03/31 09:26:58;;;;;;;13.02;8.32;;;28.90;48.60;;;;;;5090239;27;20571;-76
2021/03/31 09:29:25;;;;;;;16.77;9.10;;;29.20;48.00;;;;;;5090259;27;20804;-74
2021/03/31 09:31:53;;;;;;;15.98;8.43;;;29.80;47.40;;;;;;5098653;27;20051;-75
2021/03/31 09:34:19;;;;;;;15.18;9.90;;;29.90;46.50;;;;;;5096733;27;20134;-75
2021/03/31 09:36:59;;;;;;;14.68;7.82;;;29.70;45.80;;;;;;5096895;27;20055;-76
2021/03/31 09:39:38;;;;;;;12.80;7.82;;;30.50;46.10;;;;;;5094814;27;20062;-73
2021/03/31 09:42:06;;;;;;;12.05;7.78;;;30.90;45.70;;;;;;5098224;27;20721;-76
2021/03/31 09:44:32;;;;;;;15.40;8.20;;;31.00;45.40;;;;;;5094673;27;20079;-74
2021/03/31 09:46:59;;;;;;;16.33;7.20;;;31.00;44.60;;;;;;5097365;27;20051;-76
2021/03/31 09:49:27;;;;;;;15.70;7.90;;;31.60;44.60;;;;;;5093879;27;20043;-74
2021/03/31 09:51:53;;;;;;;19.02;8.00;;;32.10;44.60;;;;;;5094043;27;20043;-75
2021/03/31 09:54:25;;;;;;;15.43;7.82;;;32.20;43.00;;;;;;5094593;27;20402;-73
2021/03/31 09:56:52;;;;;;;13.55;7.75;;;32.20;43.10;;;;;;5096013;27;20158;-73
2021/03/31 09:59:19;;;;;;;11.93;7.05;;;33.00;42.00;;;;;;5092543;27;20416;-74
2021/03/31 10:01:45;;;;;;;15.43;7.43;;;33.20;41.50;;;;;;5092781;27;20051;-73
2021/03/31 10:04:13;;;;;;;16.13;8.32;;;32.50;41.70;;;;;;5092684;27;20276;-73
2021/03/31 10:06:40;;;;;;;14.27;8.10;;;32.80;40.20;;;;;;5094109;27;20054;-73
2021/03/31 10:09:15;;;;;;;12.82;7.88;;;33.20;40.80;;;;;;5093954;27;20047;-73
2021/03/31 10:11:43;;;;;;;13.02;7.18;;;34.00;40.00;;;;;;5094893;27;20664;-75
2021/03/31 10:14:20;;;;;;;14.02;8.43;;;33.80;40.20;;;;;;5093228;27;20537;-72
2021/03/31 10:16:47;;;;;;;14.05;8.70;;;33.40;38.60;;;;;;5090053;27;20051;-75
2021/03/31 10:19:15;;;;;;;19.25;9.18;;;33.30;38.20;;;;;;5087503;27;20155;-72
2021/03/31 10:21:42;;;;;;;15.30;10.13;;;32.50;39.30;;;;;;5093800;27;20417;-74
2021/03/31 10:24:13;;;;;;;15.52;9.00;;;32.60;37.30;;;;;;5093659;27;20086;-72
2021/03/31 10:26:46;;;;;;;17.65;9.88;;;32.40;37.40;;;;;;5095238;27;20073;-75
2021/03/31 10:29:21;;;;;;;15.82;10.50;;;31.90;37.10;;;;;;5093457;27;20182;-73
2021/03/31 10:31:48;;;;;;;16.27;9.75;;;32.20;36.30;;;;;;5096248;27;20146;-70
2021/03/31 10:34:16;;;;;;;17.98;9.48;;;33.00;35.90;;;;;;5094526;27;20058;-70
2021/03/31 10:36:52;;;;;;;15.65;9.23;;;32.50;37.30;;;;;;5094806;27;20453;-72
2021/03/31 10:50:49;;;;;;;17.60;10.52;;;31.90;36.00;;;;;;5080446;28;20047;-70
2021/03/31 10:53:16;;;;;;;21.10;10.95;;;32.30;36.00;;;;;;5090616;28;20057;-71
2021/03/31 10:55:46;;;;;;;17.05;11.32;;;32.00;35.50;;;;;;5081124;28;20066;-70
2021/03/31 10:58:13;;;;;;;19.00;11.55;;;31.90;35.40;;;;;;5088445;28;20062;-74
2021/03/31 11:00:40;;;;;;;19.17;10.60;;;31.20;35.80;;;;;;5083961;28;20106;-75
2021/03/31 11:03:07;;;;;;;16.73;10.98;;;32.30;35.20;;;;;;5085955;28;20052;-76
2021/03/31 11:05:33;;;;;;;17.00;10.68;;;32.70;34.90;;;;;;5089230;28;20075;-73
2021/03/31 11:08:00;;;;;;;17.20;10.18;;;33.30;34.80;;;;;;5087734;28;20079;-72
2021/03/31 11:10:26;;;;;;;16.65;9.88;;;32.40;34.00;;;;;;5091446;28;20143;-72
2021/03/31 11:12:56;;;;;;;18.63;9.80;;;31.20;34.10;;;;;;5088652;28;20503;-73
2021/03/31 11:15:25;;;;;;;16.70;10.30;;;30.70;34.60;;;;;;5088104;28;20047;-71
2021/03/31 11:18:00;;;;;;;17.42;10.68;;;30.20;35.00;;;;;;5090982;28;20066;-76
2021/03/31 11:20:38;;;;;;;20.03;10.63;;;30.60;36.00;;;;;;5093484;28;20058;-72
2021/03/31 11:25:54;;;;;;;17.60;9.30;;;30.90;36.20;;;;;;5089128;28;20459;-72
2021/03/31 11:28:21;;;;;;;21.92;11.32;;;31.00;35.30;;;;;;5090062;28;20066;-74
2021/03/31 11:30:48;;;;;;;17.35;9.68;;;30.60;35.50;;;;;;5088703;28;20085;-72
2021/03/31 11:33:15;;;;;;;19.10;11.15;;;30.30;35.60;;;;;;5089249;28;20078;-72
2021/03/31 11:35:43;;;;;;;20.40;10.93;;;30.80;35.20;;;;;;5089800;28;20480;-73
2021/03/31 11:38:10;;;;;;;20.17;10.77;;;30.50;35.30;;;;;;5089207;28;20047;-72
2021/03/31 11:40:37;;;;;;;19.08;9.80;;;30.30;35.80;;;;;;5093078;28;20054;-72
2021/03/31 11:43:03;;;;;;;16.35;9.98;;;31.40;35.80;;;;;;5085620;28;20233;-72
2021/03/31 11:45:30;;;;;;;17.70;9.75;;;31.60;34.80;;;;;;5091873;28;20051;-75
2021/03/31 11:47:58;;;;;;;18.05;9.40;;;30.40;36.10;;;;;;5089152;28;20515;-75
2021/03/31 11:50:25;;;;;;;19.23;10.07;;;31.20;35.90;;;;;;5090773;28;20043;-72
2021/03/31 11:52:53;;;;;;;13.88;8.23;;;31.60;35.70;;;;;;5089740;28;20059;-74
2021/03/31 11:55:20;;;;;;;15.32;9.27;;;31.20;36.10;;;;;;5092931;27;20466;-71
2021/03/31 11:57:46;;;;;;;17.98;9.63;;;31.50;35.20;;;;;;5095644;27;20058;-71
2021/03/31 12:00:14;;;;;;;18.77;9.40;;;31.40;35.80;;;;;;5094891;27;20503;-72
2021/03/31 12:02:40;;;;;;;17.55;10.20;;;30.60;36.30;;;;;;5093161;27;20051;-77
2021/03/31 12:05:09;;;;;;;16.52;8.80;;;31.10;36.30;;;;;;5092383;27;20044;-73
2021/03/31 12:07:36;;;;;;;15.68;9.02;;;31.10;35.80;;;;;;5094571;27;20049;-72
2021/03/31 12:10:07;;;;;;;13.95;8.23;;;30.70;36.00;;;;;;5096026;27;20043;-72
2021/03/31 12:12:34;;;;;;;24.98;9.82;;;30.80;35.70;;;;;;5093698;27;20446;-78
2021/03/31 12:15:01;;;;;;;15.15;8.50;;;29.80;36.40;;;;;;5097090;27;20075;-73
2021/03/31 12:17:27;;;;;;;14.68;8.65;;;31.00;36.60;;;;;;5097620;27;20043;-76
2021/03/31 12:19:54;;;;;;;16.92;9.15;;;30.50;36.10;;;;;;5098893;27;20499;-74
2021/03/31 12:22:21;;;;;;;13.55;7.45;;;29.90;35.90;;;;;;5099149;27;20047;-74
2021/03/31 12:24:48;;;;;;;16.25;7.43;;;29.50;36.10;;;;;;5098315;27;20082;-73
2021/03/31 12:27:16;;;;;;;14.30;7.82;;;29.70;35.50;;;;;;5095954;27;20074;-68
2021/03/31 12:29:44;;;;;;;16.10;6.82;;;29.60;35.50;;;;;;5093636;27;20465;-69
2021/03/31 12:32:11;;;;;;;10.18;6.63;;;29.60;35.30;;;;;;5092661;27;20051;-71
2021/03/31 12:34:38;;;;;;;14.20;7.32;;;29.90;34.90;;;;;;5090487;27;20357;-72
2021/03/31 12:37:05;;;;;;;16.02;7.70;;;30.20;34.90;;;;;;5090552;27;20051;-75
2021/03/31 12:39:33;;;;;;;12.90;7.18;;;29.90;34.70;;;;;;5093784;27;20059;-73
2021/03/31 12:41:59;;;;;;;15.10;7.63;;;29.70;34.50;;;;;;5097598;27;20057;-74
2021/03/31 12:44:26;;;;;;;12.40;7.13;;;30.40;35.60;;;;;;5095866;27;20048;-71
2021/03/31 12:46:52;;;;;;;14.70;8.25;;;31.30;35.30;;;;;;5096674;27;20245;-72
2021/03/31 12:49:19;;;;;;;14.30;8.73;;;31.60;35.20;;;;;;5093745;27;20177;-71
2021/03/31 12:51:47;;;;;;;16.15;7.50;;;31.60;35.20;;;;;;5092693;27;20565;-76
2021/03/31 12:54:20;;;;;;;11.48;7.00;;;31.50;36.10;;;;;;5092626;27;20595;-74
2021/03/31 12:56:48;;;;;;;13.00;6.95;;;32.70;35.70;;;;;;5097180;27;20058;-74
2021/03/31 12:59:14;;;;;;;13.77;8.15;;;33.50;34.70;;;;;;5097810;27;20129;-73
2021/03/31 13:01:41;;;;;;;15.52;8.85;;;33.00;33.90;;;;;;5100082;27;20059;-72
2021/03/31 13:04:08;;;;;;;18.77;8.88;;;31.80;35.00;;;;;;5099086;27;20054;-70
2021/03/31 13:06:37;;;;;;;16.58;8.02;;;32.40;34.80;;;;;;5101992;27;20062;-71
2021/03/31 13:09:05;;;;;;;13.40;7.55;;;33.10;33.70;;;;;;5102447;27;20047;-71